Time;durP1;ratioP1;P1;durP2;ratioP2;P2;SDS_P1;SDS_P2;PMS_P1;PMS_P2;Temp;Humidity;BMP_temperature;BMP_pressure;BME280_temperature;BME280_humidity;BME280_pressure;Samples;Min_cycle;Max_cycle;Signal;HPM_P1;HPM_P2
2024/01/12 00:01:12;;;;;;;;;;;;;;;;;;6005142;23;90539;-67
2024/01/12 00:03:37;;;;;;;;;;;;;;;;;;6006740;23;91840;-69
2024/01/12 00:06:02;;;;;;;;;;;;;;;;;;6005304;23;89762;-67
2024/01/12 00:08:28;;;;;;;;;;;;;;;;;;6005369;23;89168;-68
2024/01/12 00:10:53;;;;;;;;;;;;;;;;;;6005119;23;89010;-67
2024/01/12 00:13:19;;;;;;;;;;;;;;;;;;6005029;23;90419;-67
2024/01/12 00:15:44;;;;;;;;;;;;;;;;;;6005123;23;90371;-68
2024/01/12 00:18:09;;;;;;;;;;;;;;;;;;6005374;23;90587;-67
2024/01/12 00:20:36;;;;;;;;;;;;;;;;;;6005051;23;90645;-67
2024/01/12 00:23:02;;;;;;;;;;;;;;;;;;6004616;23;90469;-68
2024/01/12 00:25:27;;;;;;;;;;;;;;;;;;6008521;23;89487;-72
2024/01/12 00:27:52;;;;;;;;;;;;;;;;;;6004813;23;89376;-69
2024/01/12 00:30:18;;;;;;;;;;;;;;;;;;6004301;23;89250;-68
2024/01/12 00:32:43;;;;;;;;;;;;;;;;;;6005113;23;89368;-67
2024/01/12 00:35:08;;;;;;;;;;;;;;;;;;6005672;23;89151;-67
2024/01/12 00:37:35;;;;;;;;;;;;;;;;;;6004797;23;89362;-68
2024/01/12 00:40:00;;;;;;;;;;;;;;;;;;6004853;23;89481;-67
2024/01/12 00:42:26;;;;;;;;;;;;;;;;;;6004413;23;89358;-69
2024/01/12 00:44:51;;;;;;;;;;;;;;;;;;6004729;23;88995;-67
2024/01/12 00:47:16;;;;;;;;;;;;;;;;;;6008432;23;89704;-68
2024/01/12 00:49:41;;;;;;;;;;;;;;;;;;6005141;23;89671;-68
2024/01/12 00:52:06;;;;;;;;;;;;;;;;;;6005000;23;90427;-69
2024/01/12 00:54:31;;;;;;;;;;;;;;;;;;6004616;23;89573;-70
2024/01/12 00:56:57;;;;;;;;;;;;;;;;;;6004423;23;89768;-71
2024/01/12 00:59:22;;;;;;;;;;;;;;;;;;6003008;23;89989;-69
2024/01/12 01:01:48;;;;;;;;;;;;;;;;;;6004664;23;89546;-67
2024/01/12 01:04:13;;;;;;;;;;;;;;;;;;6004739;23;89012;-68
2024/01/12 01:06:38;;;;;;;;;;;;;;;;;;6007943;23;89839;-71
2024/01/12 01:09:03;;;;;;;;;;;;;;;;;;6004702;23;89317;-69
2024/01/12 01:11:29;;;;;;;;;;;;;;;;;;6004358;23;89622;-71
2024/01/12 01:13:54;;;;;;;;;;;;;;;;;;6004738;23;90291;-69
2024/01/12 01:16:20;;;;;;;;;;;;;;;;;;6004347;23;89510;-72
2024/01/12 01:18:45;;;;;;;;;;;;;;;;;;6004529;23;89682;-67
2024/01/12 01:21:10;;;;;;;;;;;;;;;;;;6004382;23;89735;-68
2024/01/12 01:23:35;;;;;;;;;;;;;;;;;;6004993;23;89379;-68
2024/01/12 01:26:01;;;;;;;;;;;;;;;;;;6004497;23;90067;-66
2024/01/12 01:28:26;;;;;;;;;;;;;;;;;;6007717;23;89841;-67
2024/01/12 01:30:51;;;;;;;;;;;;;;;;;;6002992;23;89480;-73
2024/01/12 01:33:16;;;;;;;;;;;;;;;;;;6004098;23;89144;-67
2024/01/12 01:35:42;;;;;;;;;;;;;;;;;;6004482;23;89426;-68
2024/01/12 01:38:07;;;;;;;;;;;;;;;;;;6004651;23;90052;-66
2024/01/12 01:40:32;;;;;;;;;;;;;;;;;;6004566;23;89851;-67
2024/01/12 01:43:06;;;;;;;;;;;;;;;;;;6004118;23;89308;-66
2024/01/12 01:45:33;;;;;;;;;;;;;;;;;;6004823;23;90234;-67
2024/01/12 01:47:59;;;;;;;;;;;;;;;;;;6004669;23;90184;-67
2024/01/12 01:50:24;;;;;;;;;;;;;;;;;;6008529;23;89569;-67
2024/01/12 01:52:49;;;;;;;;;;;;;;;;;;6004612;23;89368;-68
2024/01/12 01:55:15;;;;;;;;;;;;;;;;;;6004187;23;89530;-70
2024/01/12 01:57:42;;;;;;;;;;;;;;;;;;6005234;23;89621;-71
2024/01/12 02:00:08;;;;;;;;;;;;;;;;;;6002789;23;91811;-68
2024/01/12 02:02:33;;;;;;;;;;;;;;;;;;6004582;23;89011;-67
2024/01/12 02:05:00;;;;;;;;;;;;;;;;;;6004835;23;89722;-68
2024/01/12 02:07:26;;;;;;;;;;;;;;;;;;6002562;23;89230;-68
2024/01/12 02:09:51;;;;;;;;;;;;;;;;;;6003809;23;89439;-66
2024/01/12 02:12:16;;;;;;;;;;;;;;;;;;6007797;23;89785;-69
2024/01/12 02:14:42;;;;;;;;;;;;;;;;;;6004590;23;89068;-69
2024/01/12 02:17:07;;;;;;;;;;;;;;;;;;6004660;23;89914;-68
2024/01/12 02:19:32;;;;;;;;;;;;;;;;;;6004155;23;89288;-68
2024/01/12 02:21:57;;;;;;;;;;;;;;;;;;6002567;23;90132;-71
2024/01/12 02:24:22;;;;;;;;;;;;;;;;;;6004290;23;89741;-71
2024/01/12 02:26:48;;;;;;;;;;;;;;;;;;6004323;23;89325;-68
2024/01/12 02:29:13;;;;;;;;;;;;;;;;;;6004022;23;89035;-68
2024/01/12 02:31:39;;;;;;;;;;;;;;;;;;6004380;23;90177;-70
2024/01/12 02:34:04;;;;;;;;;;;;;;;;;;6007634;23;89030;-72
2024/01/12 02:36:30;;;;;;;;;;;;;;;;;;6004899;23;89497;-69
2024/01/12 02:38:55;;;;;;;;;;;;;;;;;;6003695;23;89181;-67
2024/01/12 02:41:20;;;;;;;;;;;;;;;;;;6004436;23;89622;-66
2024/01/12 02:43:46;;;;;;;;;;;;;;;;;;6003839;23;89537;-68
2024/01/12 02:46:11;;;;;;;;;;;;;;;;;;6004097;23;89610;-66
2024/01/12 02:48:36;;;;;;;;;;;;;;;;;;6004520;23;89085;-67
2024/01/12 02:51:01;;;;;;;;;;;;;;;;;;6003616;23;90325;-66
2024/01/12 02:53:27;;;;;;;;;;;;;;;;;;6003628;23;89767;-67
2024/01/12 02:55:52;;;;;;;;;;;;;;;;;;6007699;23;89529;-68
2024/01/12 02:58:17;;;;;;;;;;;;;;;;;;6004088;23;90296;-68
2024/01/12 03:00:42;;;;;;;;;;;;;;;;;;6004268;23;89474;-66
2024/01/12 03:03:08;;;;;;;;;;;;;;;;;;6003689;23;90084;-68
2024/01/12 03:05:33;;;;;;;;;;;;;;;;;;6003267;23;89820;-68
2024/01/12 03:07:58;;;;;;;;;;;;;;;;;;6003235;23;89508;-67
2024/01/12 03:10:23;;;;;;;;;;;;;;;;;;6003464;23;89097;-68
2024/01/12 03:12:48;;;;;;;;;;;;;;;;;;6003927;23;89495;-67
2024/01/12 03:15:14;;;;;;;;;;;;;;;;;;6007705;23;89618;-67
2024/01/12 03:17:40;;;;;;;;;;;;;;;;;;6004590;23;89554;-67
2024/01/12 03:20:06;;;;;;;;;;;;;;;;;;6003660;23;88992;-67
2024/01/12 03:22:31;;;;;;;;;;;;;;;;;;6003368;23;89238;-67
2024/01/12 03:24:56;;;;;;;;;;;;;;;;;;6003932;23;89289;-68
2024/01/12 03:27:21;;;;;;;;;;;;;;;;;;6003963;23;89680;-66
2024/01/12 03:29:46;;;;;;;;;;;;;;;;;;6003187;23;89639;-68
2024/01/12 03:32:12;;;;;;;;;;;;;;;;;;6003967;23;89347;-67
2024/01/12 03:34:37;;;;;;;;;;;;;;;;;;6004260;23;89017;-68
2024/01/12 03:37:02;;;;;;;;;;;;;;;;;;6007645;23;89950;-69
2024/01/12 03:39:27;;;;;;;;;;;;;;;;;;6003624;23;89514;-71
2024/01/12 03:41:53;;;;;;;;;;;;;;;;;;6003965;23;89661;-67
2024/01/12 03:44:18;;;;;;;;;;;;;;;;;;6001814;23;90554;-67
2024/01/12 03:46:43;;;;;;;;;;;;;;;;;;6003510;23;89001;-66
2024/01/12 03:49:08;;;;;;;;;;;;;;;;;;6004250;23;89698;-66
2024/01/12 03:51:33;;;;;;;;;;;;;;;;;;6003688;23;89900;-66
2024/01/12 03:53:59;;;;;;;;;;;;;;;;;;6003351;23;89451;-68
2024/01/12 03:56:24;;;;;;;;;;;;;;;;;;6002265;23;90701;-70
2024/01/12 03:58:49;;;;;;;;;;;;;;;;;;6006230;23;89410;-67
2024/01/12 04:01:15;;;;;;;;;;;;;;;;;;6004642;23;89635;-70
2024/01/12 04:03:41;;;;;;;;;;;;;;;;;;6005554;23;89579;-68
2024/01/12 04:06:07;;;;;;;;;;;;;;;;;;6005085;23;89645;-68
2024/01/12 04:08:32;;;;;;;;;;;;;;;;;;6005240;23;89725;-66
2024/01/12 04:10:57;;;;;;;;;;;;;;;;;;6004912;23;90093;-70
2024/01/12 04:13:22;;;;;;;;;;;;;;;;;;6003179;23;89564;-68
2024/01/12 04:15:47;;;;;;;;;;;;;;;;;;6004962;23;90026;-68
2024/01/12 04:18:13;;;;;;;;;;;;;;;;;;6005409;23;89237;-67
2024/01/12 04:20:38;;;;;;;;;;;;;;;;;;6008707;23;88946;-67
2024/01/12 04:23:03;;;;;;;;;;;;;;;;;;6003076;23;90294;-67
2024/01/12 04:25:28;;;;;;;;;;;;;;;;;;6005179;23;88939;-67
2024/01/12 04:27:54;;;;;;;;;;;;;;;;;;6005388;23;89626;-67
2024/01/12 04:30:19;;;;;;;;;;;;;;;;;;6003513;23;91882;-67
2024/01/12 04:32:44;;;;;;;;;;;;;;;;;;6005069;23;89436;-67
2024/01/12 04:35:09;;;;;;;;;;;;;;;;;;6005330;23;89811;-67
2024/01/12 04:37:35;;;;;;;;;;;;;;;;;;6005246;23;89034;-68
2024/01/12 04:40:00;;;;;;;;;;;;;;;;;;6005036;23;89268;-70
2024/01/12 04:42:25;;;;;;;;;;;;;;;;;;6008254;23;89456;-69
2024/01/12 04:44:50;;;;;;;;;;;;;;;;;;6004243;23;88980;-72
2024/01/12 04:47:16;;;;;;;;;;;;;;;;;;6004933;23;89645;-66
2024/01/12 04:49:41;;;;;;;;;;;;;;;;;;6005211;23;89458;-66
2024/01/12 04:52:07;;;;;;;;;;;;;;;;;;6004877;23;89604;-66
2024/01/12 04:54:32;;;;;;;;;;;;;;;;;;6005067;23;89668;-68
2024/01/12 04:56:57;;;;;;;;;;;;;;;;;;6004409;23;89477;-67
2024/01/12 04:59:23;;;;;;;;;;;;;;;;;;6004412;23;89425;-69
2024/01/12 05:01:48;;;;;;;;;;;;;;;;;;6003961;23;90761;-68
2024/01/12 05:04:14;;;;;;;;;;;;;;;;;;6007678;23;89232;-68
2024/01/12 05:06:40;;;;;;;;;;;;;;;;;;6004625;23;89013;-67
2024/01/12 05:09:08;;;;;;;;;;;;;;;;;;6004448;23;89203;-68
2024/01/12 05:11:33;;;;;;;;;;;;;;;;;;6004571;23;89762;-69
2024/01/12 05:13:58;;;;;;;;;;;;;;;;;;6004681;23;89435;-69
2024/01/12 05:16:23;;;;;;;;;;;;;;;;;;6004782;23;89504;-67
2024/01/12 05:18:48;;;;;;;;;;;;;;;;;;6002812;23;90310;-66
2024/01/12 05:21:14;;;;;;;;;;;;;;;;;;6005288;23;90153;-66
2024/01/12 05:23:41;;;;;;;;;;;;;;;;;;6009027;23;89693;-67
2024/01/12 05:26:07;;;;;;;;;;;;;;;;;;6003357;23;90235;-69
2024/01/12 05:28:32;;;;;;;;;;;;;;;;;;6004919;23;89515;-67
2024/01/12 05:30:57;;;;;;;;;;;;;;;;;;6004512;23;89817;-67
2024/01/12 05:33:22;;;;;;;;;;;;;;;;;;6004250;23;89735;-66
2024/01/12 05:35:47;;;;;;;;;;;;;;;;;;6004554;23;89356;-66
2024/01/12 05:38:13;;;;;;;;;;;;;;;;;;6005440;23;89137;-67
2024/01/12 05:40:38;;;;;;;;;;;;;;;;;;6004728;23;90009;-67
2024/01/12 05:43:03;;;;;;;;;;;;;;;;;;6004321;23;90237;-68
2024/01/12 05:45:28;;;;;;;;;;;;;;;;;;6008366;23;89866;-70
2024/01/12 05:47:53;;;;;;;;;;;;;;;;;;6004554;23;89998;-72
2024/01/12 05:50:19;;;;;;;;;;;;;;;;;;6004988;23;89828;-67
2024/01/12 05:52:45;;;;;;;;;;;;;;;;;;6004567;23;89733;-70
2024/01/12 05:55:11;;;;;;;;;;;;;;;;;;6004673;23;89269;-68
2024/01/12 05:57:36;;;;;;;;;;;;;;;;;;6004032;23;89337;-70
2024/01/12 06:00:03;;;;;;;;;;;;;;;;;;6004624;23;89624;-67
2024/01/12 06:02:29;;;;;;;;;;;;;;;;;;6004387;23;89766;-68
2024/01/12 06:04:54;;;;;;;;;;;;;;;;;;6004659;23;89436;-71
2024/01/12 06:07:19;;;;;;;;;;;;;;;;;;6008165;23;89789;-70
2024/01/12 06:09:44;;;;;;;;;;;;;;;;;;6004382;23;88968;-66
2024/01/12 06:12:11;;;;;;;;;;;;;;;;;;6004774;23;89709;-69
2024/01/12 06:14:36;;;;;;;;;;;;;;;;;;6002760;23;91814;-68
2024/01/12 06:17:01;;;;;;;;;;;;;;;;;;6004625;23;89551;-68
2024/01/12 06:19:27;;;;;;;;;;;;;;;;;;6003958;23;89902;-69
2024/01/12 06:21:52;;;;;;;;;;;;;;;;;;6001711;23;92383;-68
2024/01/12 06:24:17;;;;;;;;;;;;;;;;;;6004339;23;89226;-67
2024/01/12 06:26:42;;;;;;;;;;;;;;;;;;6004381;23;89789;-67
2024/01/12 06:29:08;;;;;;;;;;;;;;;;;;6007785;23;89856;-67
2024/01/12 06:31:33;;;;;;;;;;;;;;;;;;6003818;23;89572;-67
2024/01/12 06:33:58;;;;;;;;;;;;;;;;;;6003812;23;90313;-69
2024/01/12 06:36:23;;;;;;;;;;;;;;;;;;6002048;23;90235;-67
2024/01/12 06:38:48;;;;;;;;;;;;;;;;;;6002036;23;89666;-67
2024/01/12 06:41:17;;;;;;;;;;;;;;;;;;6002683;23;89677;-67
2024/01/12 06:43:43;;;;;;;;;;;;;;;;;;6002649;23;89491;-66
2024/01/12 06:46:08;;;;;;;;;;;;;;;;;;6001601;23;90848;-68
2024/01/12 06:48:37;;;;;;;;;;;;;;;;;;6002876;23;89516;-68
2024/01/12 06:51:02;;;;;;;;;;;;;;;;;;6006223;23;90078;-73
2024/01/12 06:53:27;;;;;;;;;;;;;;;;;;6002681;23;89672;-72
2024/01/12 06:55:53;;;;;;;;;;;;;;;;;;6002491;23;89569;-68
2024/01/12 06:58:18;;;;;;;;;;;;;;;;;;6002831;23;89635;-66
2024/01/12 07:00:43;;;;;;;;;;;;;;;;;;6002951;23;89654;-67
2024/01/12 07:03:08;;;;;;;;;;;;;;;;;;6001140;23;90062;-68
2024/01/12 07:05:34;;;;;;;;;;;;;;;;;;6003153;23;89630;-68
2024/01/12 07:07:59;;;;;;;;;;;;;;;;;;6002948;23;89434;-67
2024/01/12 07:10:24;;;;;;;;;;;;;;;;;;6002592;23;89464;-68
2024/01/12 07:12:52;;;;;;;;;;;;;;;;;;6003935;23;89084;-69
2024/01/12 07:15:18;;;;;;;;;;;;;;;;;;6002095;23;89289;-67
2024/01/12 07:17:45;;;;;;;;;;;;;;;;;;6003204;23;90056;-68
2024/01/12 07:20:11;;;;;;;;;;;;;;;;;;6002792;23;89703;-66
2024/01/12 07:22:37;;;;;;;;;;;;;;;;;;6004129;23;89000;-74
2024/01/12 07:25:02;;;;;;;;;;;;;;;;;;6005397;23;90001;-75
2024/01/12 07:27:27;;;;;;;;;;;;;;;;;;6001837;23;90298;-77
2024/01/12 07:29:53;;;;;;;;;;;;;;;;;;6000859;23;89055;-71
2024/01/12 07:32:18;;;;;;;;;;;;;;;;;;6006930;23;89049;-72
2024/01/12 07:34:43;;;;;;;;;;;;;;;;;;6003864;23;89796;-75
2024/01/12 07:37:08;;;;;;;;;;;;;;;;;;6001195;23;93269;-73
2024/01/12 07:39:34;;;;;;;;;;;;;;;;;;6003910;23;90230;-73
2024/01/12 07:41:59;;;;;;;;;;;;;;;;;;6004727;23;89661;-76
2024/01/12 07:44:24;;;;;;;;;;;;;;;;;;6004335;23;91068;-74
2024/01/12 07:46:49;;;;;;;;;;;;;;;;;;6004205;23;89612;-72
2024/01/12 07:49:15;;;;;;;;;;;;;;;;;;6003742;23;89491;-73
2024/01/12 07:51:40;;;;;;;;;;;;;;;;;;6004607;23;89704;-73
2024/01/12 07:54:05;;;;;;;;;;;;;;;;;;6007480;23;89335;-73
2024/01/12 07:56:30;;;;;;;;;;;;;;;;;;6003223;23;89796;-74
2024/01/12 07:58:57;;;;;;;;;;;;;;;;;;6003086;23;89553;-75
2024/01/12 08:01:23;;;;;;;;;;;;;;;;;;6004389;23;89284;-72
2024/01/12 08:03:48;;;;;;;;;;;;;;;;;;6003993;23;89704;-74
2024/01/12 08:06:14;;;;;;;;;;;;;;;;;;6002534;23;90888;-76
2024/01/12 08:08:40;;;;;;;;;;;;;;;;;;6004299;23;89360;-73
2024/01/12 08:11:05;;;;;;;;;;;;;;;;;;6003878;23;89762;-75
2024/01/12 08:13:30;;;;;;;;;;;;;;;;;;6001738;23;90535;-73
2024/01/12 08:15:57;;;;;;;;;;;;;;;;;;6007114;23;89560;-71
2024/01/12 08:18:22;;;;;;;;;;;;;;;;;;6004047;23;90325;-70
2024/01/12 08:20:48;;;;;;;;;;;;;;;;;;6003362;23;89024;-72
2024/01/12 08:23:14;;;;;;;;;;;;;;;;;;6003622;23;90119;-73
2024/01/12 08:25:40;;;;;;;;;;;;;;;;;;6002425;23;92654;-70
2024/01/12 08:28:05;;;;;;;;;;;;;;;;;;6002825;23;89089;-72
2024/01/12 08:30:30;;;;;;;;;;;;;;;;;;6003500;23;89652;-76
2024/01/12 08:32:56;;;;;;;;;;;;;;;;;;6002996;23;89304;-70
2024/01/12 08:35:21;;;;;;;;;;;;;;;;;;6003538;23;89555;-74
2024/01/12 08:37:46;;;;;;;;;;;;;;;;;;6007160;23;89686;-71
2024/01/12 08:40:11;;;;;;;;;;;;;;;;;;6003174;23;89396;-73
2024/01/12 08:42:39;;;;;;;;;;;;;;;;;;6002623;23;90033;-69
2024/01/12 08:45:05;;;;;;;;;;;;;;;;;;6002291;23;92203;-70
2024/01/12 08:47:30;;;;;;;;;;;;;;;;;;6003519;23;89480;-70
2024/01/12 08:49:55;;;;;;;;;;;;;;;;;;6003945;23;89638;-66
2024/01/12 08:52:20;;;;;;;;;;;;;;;;;;6004266;23;89166;-68
2024/01/12 08:54:46;;;;;;;;;;;;;;;;;;6003891;23;89348;-68
2024/01/12 08:57:11;;;;;;;;;;;;;;;;;;6007906;23;89600;-68
2024/01/12 08:59:36;;;;;;;;;;;;;;;;;;6008428;23;89159;-75
2024/01/12 09:02:01;;;;;;;;;;;;;;;;;;6004053;23;90222;-73
2024/01/12 09:04:28;;;;;;;;;;;;;;;;;;6008745;23;89323;-78
2024/01/12 09:06:53;;;;;;;;;;;;;;;;;;6005928;23;88954;-74
2024/01/12 09:09:18;;;;;;;;;;;;;;;;;;6003399;23;92385;-72
2024/01/12 09:11:44;;;;;;;;;;;;;;;;;;6003731;23;89187;-71
2024/01/12 09:14:10;;;;;;;;;;;;;;;;;;6004090;23;89432;-71
2024/01/12 09:16:35;;;;;;;;;;;;;;;;;;6004009;23;89684;-73
2024/01/12 09:19:00;;;;;;;;;;;;;;;;;;6006844;23;89208;-72
2024/01/12 09:21:25;;;;;;;;;;;;;;;;;;6003988;23;89952;-75
2024/01/12 09:23:51;;;;;;;;;;;;;;;;;;6003098;23;89892;-75
2024/01/12 09:26:16;;;;;;;;;;;;;;;;;;6003892;23;89001;-75
2024/01/12 09:28:41;;;;;;;;;;;;;;;;;;6004379;23;89402;-75
2024/01/12 09:31:08;;;;;;;;;;;;;;;;;;6001913;23;89720;-75
2024/01/12 09:33:33;;;;;;;;;;;;;;;;;;6003723;23;88995;-75
2024/01/12 09:35:58;;;;;;;;;;;;;;;;;;6001967;23;89104;-76
2024/01/12 09:38:23;;;;;;;;;;;;;;;;;;6003644;23;89405;-77
2024/01/12 09:40:49;;;;;;;;;;;;;;;;;;6003887;23;90342;-75
2024/01/12 09:43:15;;;;;;;;;;;;;;;;;;6000699;23;91155;-73
2024/01/12 09:45:44;;;;;;;;;;;;;;;;;;6001765;23;90228;-74
2024/01/12 09:48:10;;;;;;;;;;;;;;;;;;6003543;23;90595;-76
2024/01/12 09:50:35;;;;;;;;;;;;;;;;;;6000889;23;89327;-72
2024/01/12 09:53:00;;;;;;;;;;;;;;;;;;6003351;23;89233;-76
2024/01/12 09:55:26;;;;;;;;;;;;;;;;;;6000906;23;92681;-73
2024/01/12 09:57:51;;;;;;;;;;;;;;;;;;6004943;23;89479;-78
2024/01/12 10:00:17;;;;;;;;;;;;;;;;;;6004129;23;89514;-78
2024/01/12 10:02:43;;;;;;;;;;;;;;;;;;6008599;23;89606;-75
2024/01/12 10:05:08;;;;;;;;;;;;;;;;;;6004588;23;89492;-76
2024/01/12 10:07:33;;;;;;;;;;;;;;;;;;6004826;23;89685;-78
2024/01/12 10:09:59;;;;;;;;;;;;;;;;;;6005001;23;89519;-76
2024/01/12 10:12:24;;;;;;;;;;;;;;;;;;6005158;23;89340;-78
2024/01/12 10:15:02;;;;;;;;;;;;;;;;;;6001650;23;90022;-76
2024/01/12 10:17:28;;;;;;;;;;;;;;;;;;6004187;23;91894;-72
2024/01/12 10:19:55;;;;;;;;;;;;;;;;;;6000279;23;90054;-74
2024/01/12 10:22:20;;;;;;;;;;;;;;;;;;6003971;23;89476;-71
2024/01/12 10:24:45;;;;;;;;;;;;;;;;;;6007158;23;89672;-70
2024/01/12 10:27:12;;;;;;;;;;;;;;;;;;6006045;23;89966;-73
2024/01/12 10:29:38;;;;;;;;;;;;;;;;;;6000918;23;91177;-71
2024/01/12 10:32:04;;;;;;;;;;;;;;;;;;6001396;23;89583;-78
2024/01/12 10:34:33;;;;;;;;;;;;;;;;;;6003844;23;89376;-75
2024/01/12 10:36:59;;;;;;;;;;;;;;;;;;6003546;23;89214;-72
2024/01/12 10:39:26;;;;;;;;;;;;;;;;;;6004317;23;89573;-71
2024/01/12 10:41:52;;;;;;;;;;;;;;;;;;6002629;23;93390;-69
2024/01/12 10:44:20;;;;;;;;;;;;;;;;;;6004183;23;89424;-76
2024/01/12 10:46:47;;;;;;;;;;;;;;;;;;6007659;23;89818;-74
2024/01/12 10:49:15;;;;;;;;;;;;;;;;;;6003549;23;89689;-74
2024/01/12 10:51:50;;;;;;;;;;;;;;;;;;6003992;23;89369;-71
2024/01/12 10:54:20;;;;;;;;;;;;;;;;;;6003282;23;89570;-71
2024/01/12 10:56:45;;;;;;;;;;;;;;;;;;6004106;23;89738;-72
2024/01/12 10:59:12;;;;;;;;;;;;;;;;;;6005644;23;89524;-76
2024/01/12 11:01:37;;;;;;;;;;;;;;;;;;6005613;23;89655;-73
2024/01/12 11:04:04;;;;;;;;;;;;;;;;;;5999928;23;91274;-73
2024/01/12 11:06:30;;;;;;;;;;;;;;;;;;6003274;23;89196;-72
2024/01/12 11:08:56;;;;;;;;;;;;;;;;;;6006946;23;90644;-70
2024/01/12 11:11:23;;;;;;;;;;;;;;;;;;6004071;23;89198;-71
2024/01/12 11:13:48;;;;;;;;;;;;;;;;;;6001340;23;91256;-73
2024/01/12 11:16:17;;;;;;;;;;;;;;;;;;6004152;23;89461;-73
2024/01/12 11:18:42;;;;;;;;;;;;;;;;;;6006077;23;88877;-75
2024/01/12 11:21:07;;;;;;;;;;;;;;;;;;6004704;23;89246;-74
2024/01/12 11:23:37;;;;;;;;;;;;;;;;;;6003509;23;90173;-73
2024/01/12 11:26:03;;;;;;;;;;;;;;;;;;6005075;23;89412;-75
2024/01/12 11:28:35;;;;;;;;;;;;;;;;;;6007824;23;94435;-76
2024/01/12 11:31:00;;;;;;;;;;;;;;;;;;6003215;23;90176;-70
2024/01/12 11:33:25;;;;;;;;;;;;;;;;;;6002716;23;92358;-70
2024/01/12 11:35:51;;;;;;;;;;;;;;;;;;6001655;23;91999;-74
2024/01/12 11:38:17;;;;;;;;;;;;;;;;;;6001705;23;89550;-73
2024/01/12 11:40:43;;;;;;;;;;;;;;;;;;6003511;23;90040;-73
2024/01/12 11:43:14;;;;;;;;;;;;;;;;;;6002645;23;89362;-74
2024/01/12 11:45:41;;;;;;;;;;;;;;;;;;6003511;23;89050;-74
2024/01/12 11:48:06;;;;;;;;;;;;;;;;;;6002828;23;89999;-74
2024/01/12 11:50:31;;;;;;;;;;;;;;;;;;6005775;23;89725;-74
2024/01/12 11:52:57;;;;;;;;;;;;;;;;;;6020691;23;89532;-73
2024/01/12 11:55:23;;;;;;;;;;;;;;;;;;6032422;23;89357;-76
2024/01/12 11:57:49;;;;;;;;;;;;;;;;;;6033115;23;89484;-75
2024/01/12 12:00:14;;;;;;;;;;;;;;;;;;6055038;23;92173;-75
2024/01/12 12:02:39;;;;;;;;;;;;;;;;;;6031467;23;91128;-74
2024/01/12 12:05:11;;;;;;;;;;;;;;;;;;6030590;23;89681;-72
2024/01/12 12:07:37;;;;;;;;;;;;;;;;;;6054664;23;90770;-75
2024/01/12 12:10:02;;;;;;;;;;;;;;;;;;6032162;23;90005;-75
2024/01/12 12:12:28;;;;;;;;;;;;;;;;;;6035495;23;89083;-73
2024/01/12 12:14:56;;;;;;;;;;;;;;;;;;6032406;23;90026;-74
2024/01/12 12:17:22;;;;;;;;;;;;;;;;;;6032496;23;89482;-76
2024/01/12 12:19:47;;;;;;;;;;;;;;;;;;6033402;23;89724;-76
2024/01/12 12:22:13;;;;;;;;;;;;;;;;;;6032889;23;89454;-76
2024/01/12 12:24:38;;;;;;;;;;;;;;;;;;6032757;23;89441;-75
2024/01/12 12:27:06;;;;;;;;;;;;;;;;;;6031377;23;89618;-73
2024/01/12 12:29:32;;;;;;;;;;;;;;;;;;6032624;23;89845;-71
2024/01/12 12:32:01;;;;;;;;;;;;;;;;;;6054596;23;91072;-75
2024/01/12 12:34:31;;;;;;;;;;;;;;;;;;6036191;23;89903;-72
2024/01/12 12:36:57;;;;;;;;;;;;;;;;;;6033048;23;89761;-71
2024/01/12 12:39:22;;;;;;;;;;;;;;;;;;6032638;23;90808;-73
2024/01/12 12:41:48;;;;;;;;;;;;;;;;;;6033057;23;90354;-73
2024/01/12 12:44:13;;;;;;;;;;;;;;;;;;6033635;23;88963;-72
2024/01/12 12:46:38;;;;;;;;;;;;;;;;;;6032903;23;90059;-72
2024/01/12 12:49:06;;;;;;;;;;;;;;;;;;6032988;23;91072;-71
2024/01/12 12:51:31;;;;;;;;;;;;;;;;;;6033736;23;89642;-72
2024/01/12 12:53:56;;;;;;;;;;;;;;;;;;6032281;23;89781;-73
2024/01/12 12:56:22;;;;;;;;;;;;;;;;;;6057595;23;91804;-71
2024/01/12 12:58:48;;;;;;;;;;;;;;;;;;6032707;23;90153;-74
2024/01/12 13:01:14;;;;;;;;;;;;;;;;;;6055143;23;92294;-71
2024/01/12 13:03:40;;;;;;;;;;;;;;;;;;6032213;23;89957;-71
2024/01/12 13:06:05;;;;;;;;;;;;;;;;;;6030323;23;90572;-72
2024/01/12 13:08:30;;;;;;;;;;;;;;;;;;6032152;23;89507;-71
2024/01/12 13:10:55;;;;;;;;;;;;;;;;;;6034072;23;89106;-72
2024/01/12 13:13:21;;;;;;;;;;;;;;;;;;6033047;23;89626;-72
2024/01/12 13:15:46;;;;;;;;;;;;;;;;;;6032437;23;90093;-72
2024/01/12 13:18:11;;;;;;;;;;;;;;;;;;6036284;23;89672;-72
2024/01/12 13:20:36;;;;;;;;;;;;;;;;;;6032348;23;89700;-71
2024/01/12 13:23:02;;;;;;;;;;;;;;;;;;6032490;23;89573;-75
2024/01/12 13:25:27;;;;;;;;;;;;;;;;;;6032972;23;89993;-76
2024/01/12 13:27:52;;;;;;;;;;;;;;;;;;6035067;23;89751;-70
2024/01/12 13:30:17;;;;;;;;;;;;;;;;;;6031173;23;89590;-73
2024/01/12 13:32:43;;;;;;;;;;;;;;;;;;6032202;23;90084;-73
2024/01/12 13:35:08;;;;;;;;;;;;;;;;;;6030798;23;90146;-75
2024/01/12 13:37:34;;;;;;;;;;;;;;;;;;6035808;23;89449;-74
2024/01/12 13:39:59;;;;;;;;;;;;;;;;;;6053947;23;91698;-74
2024/01/12 13:42:24;;;;;;;;;;;;;;;;;;6029962;23;90943;-72
2024/01/12 13:44:50;;;;;;;;;;;;;;;;;;6032032;23;89712;-75
2024/01/12 13:47:15;;;;;;;;;;;;;;;;;;6053237;23;92427;-73
2024/01/12 13:49:41;;;;;;;;;;;;;;;;;;6031519;23;89157;-74
2024/01/12 13:52:08;;;;;;;;;;;;;;;;;;6030317;23;89946;-75
2024/01/12 13:54:33;;;;;;;;;;;;;;;;;;6031830;23;89249;-75
2024/01/12 13:56:58;;;;;;;;;;;;;;;;;;6033327;23;89531;-75
2024/01/12 13:59:23;;;;;;;;;;;;;;;;;;6037394;23;90443;-75
2024/01/12 14:01:49;;;;;;;;;;;;;;;;;;6035877;23;89359;-75
2024/01/12 14:04:16;;;;;;;;;;;;;;;;;;6033642;23;89509;-76
2024/01/12 14:06:41;;;;;;;;;;;;;;;;;;6037731;23;89140;-75
2024/01/12 14:09:07;;;;;;;;;;;;;;;;;;6036242;23;89105;-78
2024/01/12 14:11:33;;;;;;;;;;;;;;;;;;6034535;23;89775;-74
2024/01/12 14:14:00;;;;;;;;;;;;;;;;;;6034519;23;89131;-78
2024/01/12 14:16:25;;;;;;;;;;;;;;;;;;6054746;23;90388;-73
2024/01/12 14:18:50;;;;;;;;;;;;;;;;;;6032944;23;89665;-74
2024/01/12 14:21:16;;;;;;;;;;;;;;;;;;6038588;23;90562;-72
2024/01/12 14:23:41;;;;;;;;;;;;;;;;;;6034973;23;89870;-73
2024/01/12 14:26:07;;;;;;;;;;;;;;;;;;6037460;23;89192;-77
2024/01/12 14:28:32;;;;;;;;;;;;;;;;;;6032672;23;90051;-77
2024/01/12 14:30:57;;;;;;;;;;;;;;;;;;6056662;23;91952;-78
2024/01/12 14:33:23;;;;;;;;;;;;;;;;;;6039619;23;89274;-73
2024/01/12 14:35:48;;;;;;;;;;;;;;;;;;6036611;23;89502;-73
2024/01/12 14:38:14;;;;;;;;;;;;;;;;;;6035279;23;90070;-74
2024/01/12 14:40:39;;;;;;;;;;;;;;;;;;6033823;23;89805;-74
2024/01/12 14:43:04;;;;;;;;;;;;;;;;;;6039168;23;89661;-74
2024/01/12 14:45:29;;;;;;;;;;;;;;;;;;6034634;23;89282;-73
2024/01/12 14:47:55;;;;;;;;;;;;;;;;;;6034931;23;89117;-74
2024/01/12 14:50:22;;;;;;;;;;;;;;;;;;6034298;23;89691;-76
2024/01/12 14:52:47;;;;;;;;;;;;;;;;;;6032683;23;93002;-74
2024/01/12 14:55:13;;;;;;;;;;;;;;;;;;6036067;23;89527;-74
2024/01/12 14:57:39;;;;;;;;;;;;;;;;;;6057752;23;92021;-75
2024/01/12 15:00:08;;;;;;;;;;;;;;;;;;6034889;23;89502;-76
2024/01/12 15:02:34;;;;;;;;;;;;;;;;;;6035119;23;88950;-74
2024/01/12 15:04:59;;;;;;;;;;;;;;;;;;6036078;23;89660;-73
2024/01/12 15:07:24;;;;;;;;;;;;;;;;;;6055761;23;90378;-74
2024/01/12 15:09:49;;;;;;;;;;;;;;;;;;6032623;23;89647;-73
2024/01/12 15:12:15;;;;;;;;;;;;;;;;;;6033799;23;89417;-75
2024/01/12 15:14:40;;;;;;;;;;;;;;;;;;6033016;23;88961;-73
2024/01/12 15:17:05;;;;;;;;;;;;;;;;;;6032596;23;89773;-73
2024/01/12 15:19:30;;;;;;;;;;;;;;;;;;6033203;23;89489;-74
2024/01/12 15:21:56;;;;;;;;;;;;;;;;;;6033058;23;88938;-75
2024/01/12 15:24:21;;;;;;;;;;;;;;;;;;6033133;23;89632;-73
2024/01/12 15:26:46;;;;;;;;;;;;;;;;;;6036842;23;91017;-74
2024/01/12 15:29:12;;;;;;;;;;;;;;;;;;6029900;23;90941;-74
2024/01/12 15:31:38;;;;;;;;;;;;;;;;;;6030024;23;90748;-73
2024/01/12 15:34:03;;;;;;;;;;;;;;;;;;6032204;23;89690;-80
2024/01/12 15:36:28;;;;;;;;;;;;;;;;;;6035696;23;91114;-80
2024/01/12 15:38:53;;;;;;;;;;;;;;;;;;6056566;23;90304;-76
2024/01/12 15:41:19;;;;;;;;;;;;;;;;;;6034383;23;89335;-72
2024/01/12 15:43:44;;;;;;;;;;;;;;;;;;6037745;23;89832;-75
2024/01/12 15:46:09;;;;;;;;;;;;;;;;;;6040193;23;89686;-75
2024/01/12 15:48:34;;;;;;;;;;;;;;;;;;6056778;23;89835;-73
2024/01/12 15:51:00;;;;;;;;;;;;;;;;;;6035940;23;89626;-75
2024/01/12 15:53:25;;;;;;;;;;;;;;;;;;6058155;23;90496;-72
2024/01/12 15:55:50;;;;;;;;;;;;;;;;;;6033497;23;93273;-74
2024/01/12 15:58:15;;;;;;;;;;;;;;;;;;6058820;23;91625;-74
2024/01/12 16:00:41;;;;;;;;;;;;;;;;;;6035990;23;89080;-75
2024/01/12 16:03:06;;;;;;;;;;;;;;;;;;6057541;23;92317;-73
2024/01/12 16:05:31;;;;;;;;;;;;;;;;;;6036405;23;89495;-72
2024/01/12 16:08:00;;;;;;;;;;;;;;;;;;6039733;23;88957;-76
2024/01/12 16:10:26;;;;;;;;;;;;;;;;;;6034273;23;91946;-74
2024/01/12 16:12:51;;;;;;;;;;;;;;;;;;6036595;23;89374;-74
2024/01/12 16:15:16;;;;;;;;;;;;;;;;;;6035858;23;90577;-75
2024/01/12 16:17:42;;;;;;;;;;;;;;;;;;6037099;23;89577;-72
2024/01/12 16:20:07;;;;;;;;;;;;;;;;;;6037931;23;89018;-72
2024/01/12 16:22:33;;;;;;;;;;;;;;;;;;6060143;23;92521;-72
2024/01/12 16:24:58;;;;;;;;;;;;;;;;;;6060928;23;92316;-74
2024/01/12 16:27:23;;;;;;;;;;;;;;;;;;6038125;23;88947;-73
2024/01/12 16:29:48;;;;;;;;;;;;;;;;;;6039517;23;89670;-76
2024/01/12 16:32:13;;;;;;;;;;;;;;;;;;6037617;23;89437;-77
2024/01/12 16:34:39;;;;;;;;;;;;;;;;;;6018887;23;90664;-79